PAKTCZST

Guest
Details From PAKT - KETCHIKAN INTL
To CZST - STEWART
Flight Number -
Tags generated
Created
Modified
Stats Distance 83 nm / 153 km
Max Altitude 3,200 ft / 975 m
Waypoints 3
Social Downloads 0
Likes 0
Share VATSIM

Download

Looking for another format? Having issues loading an existing format? Contact us
Advertisement - Login to hide

Notes

Basic altitude profile: - Ascent Rate: 2500ft/min - Ascent Speed: 250kts - Cruise Altitude: 35000ft - Cruise Speed: 420kts - Descent Rate: 1500ft/min - Descent Speed: 250kts Options: - Use NATs: yes - Use PACOTS: yes - Use low airways: yes - Use high airways: yes

Route

PAKT GRAVI CZST

ID Type Via Altitude Latitude Longitude Leg Dist Tot Dist Heading (true) Name
O PAKT APT - 0 ft / 0 m 55.35554˚ -131.71374˚ - 0 nm - KETCHIKAN INTL
GRAVI FIX - 3,200 ft / 975 m 55.20375˚ -131.72597˚ 9 nm 9 nm 183° / 183° -
O CZST APT - 0 ft / 0 m 55.93542˚ -129.98403˚ 73 nm 82 nm 53° / 54° STEWART

Altitude Profile

Advertisement - Login to hide

PAKT

Details ICAO PAKT (KTN)
Name KETCHIKAN INTL
Region USA (Alaska)
Timezone Unknown (UTC+0.0)
Stats Elevation 88 ft / 27 m (AMSL)
Location 55.355545° -131.713737°
Runways 1
Magnetic Variation 18.534° E

METAR

PAKT 141653Z 14019G30KT 3SM RA BR SCT007 OVC016 08/07 A3005

Decode

TAF

TAF AMD PAKT 141419Z 1414/1512 14020G30KT 3SM RA BR FEW021 BKN035 OVC050 WS020/16055KT FM142100 15015KT 4SM -SHRA BR OVC025 FM150200 16009KT 6SM -SHRA BR OVC050 FM150700 17010KT 4SM -SHRA BR SCT015 BKN025 OVC035 AMD LTD TO CLD VIS AND WIND 1412/1415

Decode

Departure Runways

ID Width Length Bearing (true) Bearing (mag) Surface Threshold Offset Overrun Length
11 150 ft / 46 m 7,485 ft / 2,281 m 135.66° 117.13° Asphalt 0 ft / 0 m 200 ft / 61 m
29 150 ft / 46 m 7,485 ft / 2,281 m 315.68° 297.15° Asphalt 0 ft / 0 m 100 ft / 30 m

CZST

Details ICAO CZST
Name STEWART
Region Canada
Timezone America/Vancouver (UTC-8.0)
Stats Elevation 24 ft / 7 m (AMSL)
Location 55.935417° -129.984029°
Runways 1
Magnetic Variation 18.687° E

METAR

CZST 141700Z VRB02KT 2 1/2SM -RA BR BKN003 BKN009 OVC020 01/01 A3011 RMK SC5SC2SC1 SLP200

Decode

TAF

Not found

Destination Runways

ID Width Length Bearing (true) Bearing (mag) Surface Threshold Offset Overrun Length
18 75 ft / 23 m 3,873 ft / 1,180 m 194.43° 175.74° Asphalt 0 ft / 0 m 0 ft / 0 m
36 75 ft / 23 m 3,873 ft / 1,180 m 14.42° 355.73° Asphalt 0 ft / 0 m 0 ft / 0 m

Popular Alternatives